Cortlandt Manor, New York
Current Conditions -  °F | °C
As of 6:56 PM on Friday 28 Nov 2014 (Local Time) from KHPN Reporting Station
Clear Clear  
Wind Chill: 17°   Ceiling: Unl
Heat Index: 27°   Visibility: 10mi
Dew Point: 12°   Wind: 12mph
Humidity: 53%   Direction: 320°NW
Pressure: 30.2"   Gusts: 17mph
Location:  41.29°N, 73.89°W
Report Text: KHPN 282356Z 32010G15KT 10SM CLR M03/M11 A3020 RMK AO2 SLP238 T10281111 10017 21028 51016
Loading
Personal Weather Stations






























Interactive Weather Map New forecast layout! Learn more

10-Day Weather Forecast

Advertisements
Track Severe Weather on mobile